NCAR-RAP Real-Time Weather Data

Output produced by METARs form (26 May 2022  07:28 UTC)
found at http://weather.rap.ucar.edu/surface/
 
KATL 260652Z 14007KT 10SM BKN005 OVC010 22/20 A3008 RMK AO2 SLP176 T02170200
KATL 260552Z 13007KT 10SM BKN006 OVC011 21/19 A3008 RMK AO2 SLP179 T02110194 10222 20211 58010
KATL 260452Z 11008KT 10SM BKN006 OVC015 21/19 A3010 RMK AO2 SLP185 T02110194 402670200
KATL 260352Z 10008KT 10SM OVC008 22/19 A3012 RMK AO2 SLP191 T02170194
KATL 260252Z 09007KT 10SM BKN008 OVC015 22/19 A3012 RMK AO2 SLP191 T02170194 53008
KATL 260152Z 09008KT 10SM SCT008 BKN015 OVC200 22/19 A3009 RMK AO2 SLP183 SCT008 V BKN T02170194
KATL 260119Z 10007KT 10SM FEW009 BKN024 BKN070 BKN200 22/19 A3009 RMK AO2 T02170194
KATL 260052Z 10006KT 10SM FEW009 BKN070 BKN100 BKN200 22/19 A3010 RMK AO2 SLP185 T02220194
KATL 252352Z 11005KT 10SM BKN070 BKN100 BKN200 22/19 A3009 RMK AO2 SLP182 60020 T02220189 10267 20217 55005
KATL 252252Z 16004KT 10SM SCT055 BKN130 BKN200 22/20 A3009 RMK AO2 RAE14 SLP181 CB DSNT NE-E P0002 T02220200
KATL 252152Z 19008KT 6SM -RA BR FEW015 SCT050 BKN110 OVC200 22/19 A3011 RMK AO2 SLP188 CB DSNT NE-E P0018 T02170194
KATL 252052Z 13008KT 7SM -RA SCT048 BKN080 BKN110 OVC200 24/20 A3010 RMK AO2 LTG DSNT NW RAB41 SLP186 CB DSNT S-SE NW TCU DSNT NE P0000 60000 T02440200 55004
KATL 251952Z 11009G16KT 10SM FEW027 SCT045 SCT110 BKN200 26/19 A3010 RMK AO2 LTG DSNT W SLP185 CB DSNT W-NW T02560189
KATL 251852Z 11011G20KT 10SM SCT026TCU BKN034 BKN140 BKN200 26/19 A3011 RMK AO2 SLP186 TCU SE-SW MDT CU ALQDS T02610189
KATL 251849Z 11011G21KT 10SM SCT024TCU BKN032 BKN140 BKN200 26/19 A3011 RMK AO2 TCU SE-SW MDT CU ALQDS
KATL 251752Z 09013G18KT 10SM BKN020 OVC032 24/19 A3012 RMK AO2 SLP190 BINOVC 60000 T02440189 10244 20200 58014
KATL 251652Z 10013G21KT 10SM OVC017 23/18 A3014 RMK AO2 SLP197 T02280183
KATL 251552Z 11012KT 9SM OVC012 21/18 A3016 RMK AO2 SLP205 T02110178
KATL 251533Z 11011KT 9SM OVC010 21/18 A3016 RMK AO2 T02110178
KATL 251452Z 10012KT 8SM OVC007 21/18 A3016 RMK AO2 DZB08E26 SLP206 P0000 60000 T02060178 51012
KATL 251352Z 09013G19KT 10SM OVC007 20/18 A3015 RMK AO2 SLP204 T02000178
KATL 251252Z 09012KT 7SM OVC006 20/18 A3014 RMK AO2 SLP200 T02000178
KATL 251152Z 11011KT 7SM OVC008 21/18 A3012 RMK AO2 SLP192 CIG 007V009 T02060178 10211 20206 50005
KATL 251109Z 10011G18KT 10SM OVC009CB 21/18 A3013 RMK AO2 CB VC S MOV NW & DSNT NE T02060178
KATL 251052Z COR 11010KT 10SM OVC010CB 21/18 A3013 RMK AO2 LTG DSNT NE SLP194 CB VC NE MOV NW T02060178
KATL 250959Z 09010KT 10SM OVC010 21/18 A3012 RMK AO2 T02060178
KATL 250952Z 09011KT 10SM OVC009 21/18 A3012 RMK AO2 SLP190 T02060178
KATL 250919Z 09011KT 10SM BKN009 OVC036 21/18 A3012 RMK AO2 T02060183
KATL 250852Z 09011KT 10SM BKN010 BKN036 OVC055 21/18 A3011 RMK AO2 SLP187 BKN010 V SCT T02060178 53003
KATL 250752Z 09011KT 10SM BKN036 OVC045 21/17 A3010 RMK AO2 SLP183 T02110172
KATL 250652Z 09008KT 10SM SCT039 BKN200 21/17 A3009 RMK AO2 SLP181 T02110172
KATL 250552Z 10007KT 10SM BKN150 BKN180 21/17 A3010 RMK AO2 SLP183 60000 T02110172 10272 20206 58003
KATL 250452Z 09007KT 10SM BKN140 BKN200 22/17 A3011 RMK AO2 SLP187 T02170167 402890200
KATL 250352Z 13005KT 10SM BKN130 BKN200 BKN250 22/17 A3012 RMK AO2 SLP191 T02170167
KATL 250252Z 15007KT 10SM FEW080 SCT120 BKN200 BKN250 21/17 A3011 RMK AO2 SLP188 60000 T02110167 51015
KATL 250152Z 16008KT 10SM SCT080 BKN110 BKN200 22/17 A3011 RMK AO2 PK WND 16035/0056 RAB0058E18 SLP188 P0000 T02170167
KATL 250052Z 16022G33KT 9SM SCT045TCU BKN100 BKN150 BKN250 26/18 A3010 RMK AO2 PK WND 16033/0051 PRESRR SLP184 CB DSNT SE SW TCU NE-OHD-W T02560183
KATL 242352Z 15007KT 10SM FEW040 BKN150 BKN250 27/19 A3006 RMK AO2 SLP172 CB DSNT SE-SW T02720194 10289 20261 53010
KATL 242252Z 18007KT 10SM FEW040 SCT200 28/18 A3004 RMK AO2 SLP162 T02830183
KATL 242152Z 19006KT 10SM SCT040TCU SCT200 28/19 A3004 RMK AO2 SLP162 TCU NW-NE T02830189
KATL 242052Z 19007KT 10SM FEW040TCU FEW120 SCT200 SCT250 28/18 A3003 RMK AO2 SLP161 TCU SE MDT CU NE SE-SW NW T02830183 58019
KATL 241952Z 20007KT 10SM SCT038TCU SCT120 BKN200 BKN250 28/19 A3006 RMK AO2 SLP171 TCU NE S DSNT SE NW MDT CU ALQDS T02780189
KATL 241852Z 19005KT 10SM SCT032 SCT120 BKN180 BKN250 27/19 A3009 RMK AO2 SLP179 MDT CU NE-SE-SW T02720194
KATL 241752Z 18006KT 10SM FEW028 SCT120 BKN180 BKN250 27/19 A3009 RMK AO2 SLP181 T02670189 10267 20206 58003
KATL 241652Z 18007KT 10SM FEW028 BKN180 BKN250 BKN300 27/19 A3010 RMK AO2 SLP184 T02670194
KATL 241552Z 00000KT 10SM FEW018 BKN180 BKN250 OVC300 26/20 A3010 RMK AO2 SLP184 T02610200
KATL 241452Z 00000KT 10SM FEW014 FEW110 SCT160 OVC200 24/18 A3010 RMK AO2 SLP185 T02390183 53005
KATL 241352Z 29003KT 10SM FEW010 FEW100 SCT140 OVC180 23/19 A3010 RMK AO2 SLP184 VIRGA NW-NE T02280194
KATL 241252Z 19003KT 10SM FEW009 BKN100 BKN150 OVC200 22/19 A3009 RMK AO2 SLP180 VIRGA ALQDS T02170189
KATL 241152Z 22003KT 10SM FEW007 BKN150 BKN200 BKN250 21/19 A3009 RMK AO2 SLP181 VIRGA ALQDS 70017 T02060189 10211 20200 53012
KATL 241052Z 00000KT 10SM FEW005 SCT150 BKN250 21/19 A3006 RMK AO2 SLP171 VIRGA E-OHD-W T02060189
KATL 240952Z 00000KT 10SM FEW005 OVC150 21/19 A3005 RMK AO2 SLP167 T02060189
KATL 240852Z 28004KT 7SM FEW005 OVC150 21/19 A3005 RMK AO2 SLP167 T02060189 55008
KATL 240752Z 28003KT 10SM FEW020 OVC150 21/19 A3005 RMK AO2 SLP167 T02060189